createdAt,value
2022-10-15T00:00:49.486Z,4.18
2022-10-15T00:03:16.011Z,4.25
2022-10-15T00:05:42.442Z,4.22
2022-10-15T00:08:10.421Z,3.88
2022-10-15T00:10:37.306Z,4.18
2022-10-15T00:13:04.941Z,3.90
2022-10-15T00:15:31.411Z,3.70
2022-10-15T00:17:58.307Z,4.05
2022-10-15T00:20:24.739Z,3.65
2022-10-15T00:22:51.218Z,3.45
2022-10-15T00:25:17.690Z,4.03
2022-10-15T00:27:44.108Z,3.80
2022-10-15T00:30:10.925Z,3.65
2022-10-15T00:32:37.408Z,4.13
2022-10-15T00:35:04.082Z,3.80
2022-10-15T00:37:30.478Z,3.70
2022-10-15T00:39:56.905Z,4.20
2022-10-15T00:42:23.695Z,4.00
2022-10-15T00:45:00.367Z,4.22
2022-10-15T00:47:39.512Z,3.63
2022-10-15T00:50:08.872Z,3.97
2022-10-15T00:52:53.543Z,3.63
2022-10-15T00:55:32.029Z,3.33
2022-10-15T00:58:02.088Z,3.80
2022-10-15T01:00:28.701Z,3.92
2022-10-15T01:02:55.128Z,3.08
2022-10-15T01:05:22.070Z,3.90
2022-10-15T01:07:48.478Z,3.63
2022-10-15T01:10:15.641Z,4.07
2022-10-15T01:12:54.094Z,3.65
2022-10-15T01:15:30.410Z,3.75
2022-10-15T01:18:05.401Z,3.40
2022-10-15T01:21:09.520Z,3.95
2022-10-15T01:24:14.465Z,3.53
2022-10-15T01:27:09.099Z,3.40
2022-10-15T01:29:52.977Z,3.42
2022-10-15T01:32:37.231Z,3.47
2022-10-15T01:35:12.377Z,3.30
2022-10-15T01:37:55.886Z,3.60
2022-10-15T01:40:38.512Z,3.50
2022-10-15T01:43:09.738Z,3.47
2022-10-15T01:45:40.684Z,3.53
2022-10-15T01:48:09.668Z,3.50
2022-10-15T01:50:38.980Z,3.40
2022-10-15T01:53:06.403Z,4.00
2022-10-15T01:55:33.263Z,3.55
2022-10-15T01:58:00.348Z,3.88
2022-10-15T02:00:26.849Z,4.35
2022-10-15T02:02:53.249Z,3.90
2022-10-15T02:05:27.673Z,3.30
2022-10-15T02:08:12.119Z,3.90
2022-10-15T02:13:20.697Z,3.60
2022-10-15T02:16:08.840Z,4.07
2022-10-15T02:18:42.353Z,3.72
2022-10-15T02:21:11.674Z,3.63
2022-10-15T02:23:59.240Z,4.00
2022-10-15T02:26:28.292Z,3.35
2022-10-15T02:28:57.496Z,3.80
2022-10-15T02:31:25.909Z,3.95
2022-10-15T02:33:54.951Z,3.45
2022-10-15T02:36:22.010Z,3.75
2022-10-15T02:38:49.390Z,3.47
2022-10-15T02:41:16.117Z,3.90
2022-10-15T02:43:42.712Z,3.50
2022-10-15T02:46:10.535Z,3.42
2022-10-15T02:48:36.949Z,2.92
2022-10-15T02:51:04.690Z,3.90
2022-10-15T02:53:31.117Z,3.45
2022-10-15T02:55:57.551Z,3.42
2022-10-15T02:58:24.715Z,3.65
2022-10-15T03:00:51.220Z,3.10
2022-10-15T03:03:17.706Z,3.58
2022-10-15T03:05:44.289Z,3.65
2022-10-15T03:08:10.683Z,3.42
2022-10-15T03:10:37.105Z,3.78
2022-10-15T03:13:05.050Z,3.47
2022-10-15T03:15:31.539Z,3.55
2022-10-15T03:17:57.957Z,3.85
2022-10-15T03:20:24.683Z,2.97
2022-10-15T03:22:51.110Z,3.40
2022-10-15T03:25:17.508Z,3.97
2022-10-15T03:27:43.927Z,3.47
2022-10-15T03:30:10.761Z,3.30
2022-10-15T03:32:37.226Z,3.80
2022-10-15T03:35:03.846Z,3.42
2022-10-15T03:37:30.255Z,3.88
2022-10-15T03:39:56.654Z,3.42
2022-10-15T03:42:23.618Z,3.42
2022-10-15T03:44:50.152Z,3.72
2022-10-15T03:47:16.565Z,3.58
2022-10-15T03:49:42.964Z,3.70
2022-10-15T03:52:09.384Z,3.67
2022-10-15T03:54:35.856Z,3.80
2022-10-15T03:57:02.271Z,3.90
2022-10-15T03:59:28.765Z,4.38
2022-10-15T04:01:55.183Z,4.25
2022-10-15T04:04:21.583Z,4.28
2022-10-15T04:06:48.070Z,4.03
2022-10-15T04:09:14.839Z,4.05
2022-10-15T04:11:41.619Z,3.50
2022-10-15T04:14:08.056Z,4.40
2022-10-15T04:16:34.569Z,4.03
2022-10-15T04:19:01.015Z,3.85
2022-10-15T04:21:27.448Z,4.10
2022-10-15T04:23:53.850Z,3.70
2022-10-15T04:26:20.297Z,4.10
2022-10-15T04:28:48.631Z,3.88
2022-10-15T04:31:15.548Z,4.03
2022-10-15T04:33:41.941Z,3.65
2022-10-15T04:36:12.859Z,3.92
2022-10-15T04:38:39.372Z,4.15
2022-10-15T04:41:08.410Z,4.35
2022-10-15T04:43:35.475Z,4.43
2022-10-15T04:46:03.812Z,3.88
2022-10-15T04:48:31.444Z,4.43
2022-10-15T04:51:18.078Z,4.38
2022-10-15T04:53:44.794Z,3.75
2022-10-15T04:56:15.342Z,3.60
2022-10-15T04:58:42.561Z,3.97
2022-10-15T05:01:12.164Z,4.25
2022-10-15T05:03:41.113Z,4.43
2022-10-15T05:06:14.138Z,3.80
2022-10-15T05:08:43.461Z,4.00
2022-10-15T05:11:13.560Z,3.75
2022-10-15T05:13:40.062Z,3.85
2022-10-15T05:16:13.889Z,4.00
2022-10-15T05:18:41.217Z,3.95
2022-10-15T05:21:08.107Z,3.88
2022-10-15T05:23:34.735Z,3.72
2022-10-15T05:26:04.770Z,4.18
2022-10-15T05:28:31.511Z,3.60
2022-10-15T05:31:04.546Z,3.60
2022-10-15T05:33:31.053Z,3.97
2022-10-15T05:35:57.506Z,3.92
2022-10-15T05:38:24.464Z,4.00
2022-10-15T05:40:50.865Z,3.95
2022-10-15T05:43:17.266Z,4.13
2022-10-15T05:45:43.720Z,3.90
2022-10-15T05:48:10.139Z,4.28
2022-10-15T05:50:36.563Z,4.40
2022-10-15T05:53:02.987Z,4.10
2022-10-15T05:55:30.130Z,4.47
2022-10-15T05:58:01.071Z,3.80
2022-10-15T06:00:27.479Z,4.63
2022-10-15T06:05:25.303Z,4.25
2022-10-15T06:07:51.804Z,4.70
2022-10-15T06:10:18.373Z,4.40
2022-10-15T06:12:50.048Z,4.32
2022-10-15T06:15:17.086Z,4.05
2022-10-15T06:17:43.471Z,4.15
2022-10-15T06:20:11.135Z,4.35
2022-10-15T06:25:09.451Z,4.20
2022-10-15T06:27:35.867Z,4.30
2022-10-15T06:30:02.492Z,4.20
2022-10-15T06:32:28.891Z,4.90
2022-10-15T06:34:55.309Z,4.47
2022-10-15T06:37:22.010Z,4.57
2022-10-15T06:39:48.752Z,4.70
2022-10-15T06:42:15.335Z,4.88
2022-10-15T06:44:41.776Z,5.28
2022-10-15T06:47:08.235Z,4.75
2022-10-15T06:49:34.694Z,4.78
2022-10-15T06:52:03.831Z,5.20
2022-10-15T06:54:30.471Z,5.00
2022-10-15T06:56:56.904Z,4.93
2022-10-15T06:59:23.420Z,4.80
2022-10-15T07:01:49.851Z,4.68
2022-10-15T07:04:16.250Z,4.85
2022-10-15T07:06:42.807Z,4.85
2022-10-15T07:09:09.223Z,5.05
2022-10-15T07:11:35.648Z,4.80
2022-10-15T07:14:02.554Z,5.43
2022-10-15T07:16:29.010Z,4.90
2022-10-15T07:18:55.462Z,4.82
2022-10-15T07:21:21.916Z,4.68
2022-10-15T07:23:48.350Z,5.18
2022-10-15T07:26:14.806Z,5.20
2022-10-15T07:28:41.359Z,5.38
2022-10-15T07:31:08.534Z,5.45
2022-10-15T07:33:35.059Z,4.97
2022-10-15T07:36:06.226Z,4.70
2022-10-15T07:38:36.162Z,4.85
2022-10-15T07:41:03.897Z,4.90
2022-10-15T07:43:30.596Z,5.00
2022-10-15T07:45:57.019Z,5.00
2022-10-15T07:48:23.568Z,5.00
2022-10-15T07:51:02.515Z,4.70
2022-10-15T07:53:29.048Z,4.85
2022-10-15T07:55:59.831Z,4.97
2022-10-15T07:58:26.327Z,4.68
2022-10-15T08:00:53.083Z,4.43
2022-10-15T08:03:19.488Z,4.55
2022-10-15T08:05:45.906Z,4.70
2022-10-15T08:08:12.302Z,4.82
2022-10-15T08:10:38.728Z,4.95
2022-10-15T08:13:05.140Z,4.80
2022-10-15T08:15:31.549Z,5.00
2022-10-15T08:17:59.381Z,5.28
2022-10-15T08:20:25.812Z,5.50
2022-10-15T08:22:52.230Z,5.68
2022-10-15T08:25:18.673Z,6.20
2022-10-15T08:27:45.058Z,7.00
2022-10-15T08:30:11.470Z,7.18
2022-10-15T08:32:37.864Z,6.80
2022-10-15T08:35:04.416Z,6.40
2022-10-15T08:37:30.829Z,7.43
2022-10-15T08:39:57.228Z,6.95
2022-10-15T08:42:32.595Z,6.38
2022-10-15T08:45:02.570Z,7.05
2022-10-15T08:47:34.798Z,6.20
2022-10-15T08:50:04.738Z,6.97
2022-10-15T08:52:47.118Z,6.53
2022-10-15T08:55:16.272Z,7.03
2022-10-15T08:58:08.161Z,6.47
2022-10-15T09:00:40.527Z,6.63
2022-10-15T09:03:09.889Z,6.65
2022-10-15T09:05:46.587Z,6.65
2022-10-15T09:08:28.789Z,6.97
2022-10-15T09:10:59.376Z,6.80
2022-10-15T09:13:28.600Z,7.18
2022-10-15T09:16:05.842Z,7.22
2022-10-15T09:18:34.417Z,7.60
2022-10-15T09:21:02.290Z,7.50
2022-10-15T09:23:32.153Z,7.43
2022-10-15T09:26:23.384Z,7.78
2022-10-15T09:29:14.404Z,7.55
2022-10-15T09:31:48.184Z,7.43
2022-10-15T09:34:26.847Z,8.25
2022-10-15T09:37:08.022Z,8.15
2022-10-15T09:39:47.821Z,7.25
2022-10-15T09:42:32.244Z,8.32
2022-10-15T09:45:05.996Z,7.47
2022-10-15T09:47:34.553Z,8.60
2022-10-15T09:50:01.743Z,8.02
2022-10-15T09:52:40.322Z,7.55
2022-10-15T09:55:34.451Z,8.10
2022-10-15T09:58:08.803Z,7.22
2022-10-15T10:00:59.520Z,7.97
2022-10-15T10:03:28.337Z,7.15
2022-10-15T10:06:04.075Z,7.60
2022-10-15T10:09:00.908Z,7.13
2022-10-15T10:11:27.601Z,7.28
2022-10-15T10:13:56.409Z,6.70
2022-10-15T10:16:23.580Z,6.40
2022-10-15T10:19:12.500Z,6.80
2022-10-15T10:21:42.064Z,6.93
2022-10-15T10:24:34.430Z,7.20
2022-10-15T10:27:02.228Z,5.82
2022-10-15T10:29:33.962Z,6.22
2022-10-15T10:32:10.641Z,6.28
2022-10-15T10:34:37.310Z,7.07
2022-10-15T10:37:04.647Z,6.28
2022-10-15T10:39:32.551Z,6.38
2022-10-15T10:42:04.699Z,5.60
2022-10-15T10:44:39.840Z,6.03
2022-10-15T10:47:06.141Z,5.28
2022-10-15T10:49:35.277Z,5.43
2022-10-15T10:52:01.692Z,4.95
2022-10-15T10:54:29.078Z,5.30
2022-10-15T10:56:56.633Z,5.50
2022-10-15T10:59:41.887Z,5.78
2022-10-15T11:02:12.391Z,5.22
2022-10-15T11:04:39.430Z,5.93
2022-10-15T11:07:18.004Z,5.60
2022-10-15T11:10:12.410Z,5.20
2022-10-15T11:12:38.715Z,5.38
2022-10-15T11:15:38.538Z,5.43
2022-10-15T11:18:44.141Z,5.75
2022-10-15T11:21:50.591Z,5.63
2022-10-15T11:24:33.446Z,5.80
2022-10-15T11:27:33.514Z,5.45
2022-10-15T11:30:22.102Z,5.18
2022-10-15T11:33:13.082Z,4.40
2022-10-15T11:35:58.739Z,3.80
2022-10-15T11:38:43.489Z,4.20
2022-10-15T11:41:40.876Z,3.85
2022-10-15T11:44:13.311Z,3.47
2022-10-15T11:46:46.701Z,4.10
2022-10-15T11:49:37.971Z,4.13
2022-10-15T11:52:41.668Z,4.03
2022-10-15T11:55:18.756Z,4.55
2022-10-15T11:57:46.117Z,4.60
2022-10-15T12:00:41.220Z,4.55
2022-10-15T12:03:15.731Z,4.55
2022-10-15T12:05:50.559Z,4.60
2022-10-15T12:08:17.659Z,3.97
2022-10-15T12:11:15.299Z,4.10
2022-10-15T12:13:47.593Z,3.60
2022-10-15T12:16:21.371Z,3.20
2022-10-15T12:18:58.022Z,3.17
2022-10-15T12:21:38.893Z,3.47
2022-10-15T12:24:26.613Z,3.95
2022-10-15T12:26:54.035Z,3.40
2022-10-15T12:29:22.344Z,2.47
2022-10-15T12:31:51.054Z,2.30
2022-10-15T12:34:36.385Z,2.22
2022-10-15T12:37:18.541Z,1.98
2022-10-15T12:39:53.348Z,1.67
2022-10-15T12:42:27.598Z,1.52
2022-10-15T12:44:54.477Z,2.13
2022-10-15T12:47:45.758Z,1.60
2022-10-15T12:50:20.178Z,1.67
2022-10-15T12:52:49.505Z,1.30
2022-10-15T12:55:32.061Z,1.20
2022-10-15T12:58:32.595Z,1.10
2022-10-15T13:01:07.426Z,0.85
2022-10-15T13:03:36.519Z,0.70
2022-10-15T13:06:22.795Z,0.77
2022-10-15T13:08:56.923Z,0.73
2022-10-15T13:11:42.554Z,0.70
2022-10-15T13:14:08.900Z,0.57
2022-10-15T13:16:35.701Z,0.50
2022-10-15T13:19:03.239Z,0.50
2022-10-15T13:21:53.965Z,0.68
2022-10-15T13:24:25.652Z,0.55
2022-10-15T13:26:53.742Z,0.50
2022-10-15T13:29:23.384Z,0.80
2022-10-15T13:31:50.858Z,0.50
2022-10-15T13:34:26.453Z,0.65
2022-10-15T13:36:53.645Z,0.60
2022-10-15T13:39:26.776Z,0.55
2022-10-15T13:41:56.225Z,0.63
2022-10-15T13:44:24.261Z,0.50
2022-10-15T13:46:51.162Z,0.50
2022-10-15T13:49:18.251Z,0.50
2022-10-15T13:51:49.974Z,0.60
2022-10-15T13:54:20.596Z,0.77
2022-10-15T13:56:57.661Z,0.57
2022-10-15T13:59:25.693Z,0.57
2022-10-15T14:01:55.736Z,0.63
2022-10-15T14:04:23.158Z,0.60
2022-10-15T14:09:37.993Z,0.65
2022-10-15T14:12:08.254Z,0.65
2022-10-15T14:14:35.766Z,0.77
2022-10-15T14:17:12.995Z,0.40
2022-10-15T14:19:39.719Z,0.55
2022-10-15T14:22:06.532Z,0.40
2022-10-15T14:24:35.220Z,0.50
2022-10-15T14:27:14.812Z,0.50
2022-10-15T14:29:46.305Z,0.60
2022-10-15T14:32:32.362Z,0.60
2022-10-15T14:35:00.191Z,0.43
2022-10-15T14:37:35.600Z,0.40
2022-10-15T14:40:13.881Z,0.30
2022-10-15T14:42:46.067Z,0.63
2022-10-15T14:45:18.541Z,0.75
2022-10-15T14:47:47.451Z,0.40
2022-10-15T14:50:14.140Z,0.50
2022-10-15T14:52:47.893Z,0.32
2022-10-15T14:55:16.128Z,0.55
2022-10-15T14:57:44.195Z,0.25
2022-10-15T15:00:29.483Z,1.15
2022-10-15T15:02:57.336Z,1.10
2022-10-15T15:05:28.097Z,1.90
2022-10-15T15:07:56.772Z,0.93
2022-10-15T15:10:24.687Z,0.32
2022-10-15T15:12:56.568Z,0.47
2022-10-15T15:15:24.929Z,0.40
2022-10-15T15:17:54.351Z,0.40
2022-10-15T15:20:21.498Z,0.40
2022-10-15T15:22:50.263Z,0.30
2022-10-15T15:25:22.629Z,0.38
2022-10-15T15:27:49.054Z,0.30
2022-10-15T15:30:19.146Z,0.30
2022-10-15T15:32:45.969Z,0.20
2022-10-15T15:35:27.013Z,0.20
2022-10-15T15:37:53.432Z,0.32
2022-10-15T15:40:20.035Z,0.30
2022-10-15T15:42:46.947Z,0.38
2022-10-15T15:45:21.260Z,0.40
2022-10-15T15:47:48.036Z,0.40
2022-10-15T15:50:15.004Z,0.50
2022-10-15T15:52:43.571Z,0.50
2022-10-15T15:55:10.872Z,0.60
2022-10-15T15:57:37.364Z,0.40
2022-10-15T16:00:06.302Z,0.50
2022-10-15T16:02:33.586Z,0.43
2022-10-15T16:05:01.732Z,0.57
2022-10-15T16:07:29.636Z,0.50
2022-10-15T16:09:56.330Z,0.60
2022-10-15T16:12:22.738Z,0.80
2022-10-15T16:14:49.226Z,0.68
2022-10-15T16:17:15.680Z,0.75
2022-10-15T16:19:42.169Z,0.82
2022-10-15T16:22:08.550Z,0.70
2022-10-15T16:24:35.706Z,0.57
2022-10-15T16:27:02.165Z,0.47
2022-10-15T16:29:28.581Z,0.70
2022-10-15T16:31:55.004Z,0.60
2022-10-15T16:34:21.425Z,0.60
2022-10-15T16:36:47.823Z,0.80
2022-10-15T16:39:14.224Z,0.75
2022-10-15T16:41:40.628Z,0.90
2022-10-15T16:44:07.194Z,0.88
2022-10-15T16:46:33.670Z,1.00
2022-10-15T16:49:00.135Z,1.27
2022-10-15T16:51:26.807Z,1.38
2022-10-15T16:53:54.705Z,1.48
2022-10-15T16:56:23.389Z,1.30
2022-10-15T16:58:50.211Z,1.08
2022-10-15T17:01:19.267Z,0.70
2022-10-15T17:03:46.075Z,0.70
2022-10-15T17:06:16.040Z,0.75
2022-10-15T17:08:46.112Z,0.60
2022-10-15T17:11:21.575Z,0.45
2022-10-15T17:13:49.529Z,0.70
2022-10-15T17:16:24.918Z,0.70
2022-10-15T17:21:25.897Z,0.70
2022-10-15T17:23:54.000Z,1.05
2022-10-15T17:26:22.543Z,0.80
2022-10-15T17:28:49.560Z,1.17
2022-10-15T17:31:18.911Z,1.08
2022-10-15T17:33:45.805Z,1.23
2022-10-15T17:36:17.078Z,1.40
2022-10-15T17:38:44.763Z,1.40
2022-10-15T17:41:13.789Z,1.60
2022-10-15T17:43:40.435Z,2.00
2022-10-15T17:46:17.966Z,2.65
2022-10-15T17:48:44.644Z,2.50
2022-10-15T17:51:14.245Z,2.67
2022-10-15T17:53:41.595Z,1.80
2022-10-15T17:56:11.106Z,1.40
2022-10-15T17:58:37.914Z,1.33
2022-10-15T18:01:04.440Z,1.00
2022-10-15T18:03:30.987Z,1.27
2022-10-15T18:05:57.380Z,1.30
2022-10-15T18:08:24.080Z,1.10
2022-10-15T18:10:52.163Z,1.10
2022-10-15T18:13:18.967Z,1.52
2022-10-15T18:15:47.703Z,1.65
2022-10-15T18:18:14.815Z,1.60
2022-10-15T18:20:42.093Z,1.98
2022-10-15T18:23:09.018Z,1.60
2022-10-15T18:25:35.507Z,1.30
2022-10-15T18:28:01.956Z,1.60
2022-10-15T18:30:29.381Z,1.25
2022-10-15T18:32:58.044Z,1.50
2022-10-15T18:35:25.419Z,1.80
2022-10-15T18:37:51.841Z,4.20
2022-10-15T18:40:18.302Z,3.15
2022-10-15T18:42:47.675Z,2.45
2022-10-15T18:45:14.452Z,2.70
2022-10-15T18:47:40.849Z,3.40
2022-10-15T18:50:07.866Z,3.50
2022-10-15T18:52:39.945Z,3.05
2022-10-15T18:55:07.737Z,3.13
2022-10-15T18:57:34.786Z,2.78
2022-10-15T19:00:01.287Z,2.50
2022-10-15T19:02:28.084Z,2.10
2022-10-15T19:04:54.625Z,2.08
2022-10-15T19:07:21.049Z,1.80
2022-10-15T19:09:47.472Z,1.55
2022-10-15T19:12:13.909Z,1.38
2022-10-15T19:14:40.319Z,1.67
2022-10-15T19:17:06.720Z,1.63
2022-10-15T19:19:33.207Z,1.40
2022-10-15T19:21:59.642Z,1.60
2022-10-15T19:24:26.162Z,2.00
2022-10-15T19:26:52.658Z,2.00
2022-10-15T19:29:19.754Z,2.10
2022-10-15T19:31:47.749Z,2.15
2022-10-15T19:34:14.814Z,1.77
2022-10-15T19:36:46.325Z,2.20
2022-10-15T19:39:15.432Z,2.08
2022-10-15T19:41:42.906Z,2.30
2022-10-15T19:44:11.273Z,1.80
2022-10-15T19:46:37.848Z,1.38
2022-10-15T19:49:08.862Z,1.65
2022-10-15T19:51:35.504Z,1.52
2022-10-15T19:54:02.161Z,1.25
2022-10-15T19:56:28.739Z,1.10
2022-10-15T19:58:59.763Z,0.90
2022-10-15T20:01:27.703Z,1.00
2022-10-15T20:03:54.384Z,1.20
2022-10-15T20:06:21.250Z,1.42
2022-10-15T20:08:47.866Z,1.55
2022-10-15T20:11:14.290Z,1.65
2022-10-15T20:13:40.703Z,1.65
2022-10-15T20:16:08.957Z,1.83
2022-10-15T20:18:35.895Z,1.90
2022-10-15T20:21:15.988Z,1.67
2022-10-15T20:23:43.272Z,1.45
2022-10-15T20:26:13.110Z,1.30
2022-10-15T20:28:41.498Z,1.75
2022-10-15T20:31:10.142Z,1.33
2022-10-15T20:33:36.749Z,1.60
2022-10-15T20:36:07.667Z,1.85
2022-10-15T20:38:35.038Z,1.67
2022-10-15T20:41:16.122Z,2.10
2022-10-15T20:43:43.998Z,1.55
2022-10-15T20:46:13.362Z,1.17
2022-10-15T20:48:41.538Z,1.55
2022-10-15T20:51:09.365Z,1.83
2022-10-15T20:53:35.872Z,1.40
2022-10-15T20:56:02.445Z,1.25
2022-10-15T20:58:29.311Z,1.17
2022-10-15T21:00:55.950Z,0.90
2022-10-15T21:03:22.437Z,0.70
2022-10-15T21:05:48.829Z,0.82
2022-10-15T21:08:15.329Z,1.30
2022-10-15T21:10:41.829Z,1.10
2022-10-15T21:13:08.256Z,1.20
2022-10-15T21:15:34.685Z,1.40
2022-10-15T21:18:01.086Z,1.58
2022-10-15T21:20:27.573Z,1.40
2022-10-15T21:22:53.987Z,1.27
2022-10-15T21:25:20.430Z,1.40
2022-10-15T21:27:46.834Z,1.40
2022-10-15T21:30:13.277Z,1.30
2022-10-15T21:32:39.744Z,1.50
2022-10-15T21:35:06.541Z,1.67
2022-10-15T21:37:37.094Z,1.40
2022-10-15T21:40:04.949Z,1.35
2022-10-15T21:42:31.337Z,1.17
2022-10-15T21:44:58.305Z,1.40
2022-10-15T21:47:25.546Z,1.30
2022-10-15T21:49:52.139Z,1.58
2022-10-15T21:52:18.552Z,1.38
2022-10-15T21:54:45.007Z,1.30
2022-10-15T21:57:11.516Z,1.45
2022-10-15T21:59:37.936Z,1.30
2022-10-15T22:02:04.494Z,1.30
2022-10-15T22:04:34.563Z,0.98
2022-10-15T22:07:01.189Z,1.20
2022-10-15T22:09:27.654Z,0.85
2022-10-15T22:11:54.421Z,0.90
2022-10-15T22:14:20.822Z,0.73
2022-10-15T22:16:47.226Z,0.70
2022-10-15T22:19:14.664Z,0.52
2022-10-15T22:21:41.083Z,0.60
2022-10-15T22:24:14.027Z,0.70
2022-10-15T22:26:43.883Z,0.40
2022-10-15T22:29:17.431Z,0.52
2022-10-15T22:31:43.965Z,0.60
2022-10-15T22:34:10.492Z,0.47
2022-10-15T22:36:36.905Z,0.40
2022-10-15T22:39:05.607Z,0.50
2022-10-15T22:41:39.548Z,0.60
2022-10-15T22:44:12.301Z,0.50
2022-10-15T22:46:39.034Z,0.52
2022-10-15T22:49:06.946Z,0.70
2022-10-15T22:51:33.580Z,0.65
2022-10-15T22:54:00.521Z,0.47
2022-10-15T22:56:27.907Z,0.60
2022-10-15T22:58:56.817Z,0.40
2022-10-15T23:01:25.969Z,0.60
2022-10-15T23:03:54.664Z,0.50
2022-10-15T23:06:21.909Z,0.47
2022-10-15T23:08:48.841Z,0.50
2022-10-15T23:11:18.598Z,0.52
2022-10-15T23:13:45.792Z,0.50
2022-10-15T23:16:18.448Z,0.60
2022-10-15T23:18:46.536Z,0.80
2022-10-15T23:21:18.478Z,0.60
2022-10-15T23:23:45.637Z,0.60
2022-10-15T23:26:14.154Z,0.63
2022-10-15T23:28:41.139Z,0.60
2022-10-15T23:31:07.690Z,1.15
2022-10-15T23:33:34.097Z,0.70
2022-10-15T23:36:03.230Z,0.60
2022-10-15T23:38:30.046Z,0.65
2022-10-15T23:41:04.106Z,0.60
2022-10-15T23:43:30.532Z,0.65
2022-10-15T23:45:57.600Z,0.70
2022-10-15T23:48:24.147Z,0.63
2022-10-15T23:50:50.777Z,0.50
2022-10-15T23:53:17.285Z,0.70
2022-10-15T23:55:43.791Z,0.50
2022-10-15T23:58:10.966Z,0.60
